sensor_id;sensor_type;location;lat;lon;timestamp;temperature;humidity
8220;DHT22;4151;51.110;7.020;2023-09-19T00:00:42;15.90;99.90
8220;DHT22;4151;51.110;7.020;2023-09-19T00:03:09;15.90;99.90
8220;DHT22;4151;51.110;7.020;2023-09-19T00:05:36;15.80;99.90
8220;DHT22;4151;51.110;7.020;2023-09-19T00:08:04;15.80;99.90
8220;DHT22;4151;51.110;7.020;2023-09-19T00:10:31;15.80;99.90
8220;DHT22;4151;51.110;7.020;2023-09-19T00:13:00;15.70;99.90
8220;DHT22;4151;51.110;7.020;2023-09-19T00:15:35;15.70;99.90
8220;DHT22;4151;51.110;7.020;2023-09-19T00:18:01;15.70;99.90
8220;DHT22;4151;51.110;7.020;2023-09-19T00:20:27;15.70;99.90
8220;DHT22;4151;51.110;7.020;2023-09-19T00:22:53;15.70;99.90
8220;DHT22;4151;51.110;7.020;2023-09-19T00:25:20;15.60;99.90
8220;DHT22;4151;51.110;7.020;2023-09-19T00:27:46;15.60;99.90
8220;DHT22;4151;51.110;7.020;2023-09-19T00:30:13;15.70;99.90
8220;DHT22;4151;51.110;7.020;2023-09-19T00:32:45;15.50;99.90
8220;DHT22;4151;51.110;7.020;2023-09-19T00:35:15;15.60;99.90
8220;DHT22;4151;51.110;7.020;2023-09-19T00:37:41;15.50;99.90
8220;DHT22;4151;51.110;7.020;2023-09-19T00:40:08;15.50;99.90
8220;DHT22;4151;51.110;7.020;2023-09-19T00:42:44;15.50;99.90
8220;DHT22;4151;51.110;7.020;2023-09-19T00:45:11;15.50;99.90
8220;DHT22;4151;51.110;7.020;2023-09-19T00:47:49;15.50;99.90
8220;DHT22;4151;51.110;7.020;2023-09-19T00:50:22;15.50;99.90
8220;DHT22;4151;51.110;7.020;2023-09-19T00:52:49;15.50;99.90
8220;DHT22;4151;51.110;7.020;2023-09-19T00:55:16;15.60;99.90
8220;DHT22;4151;51.110;7.020;2023-09-19T00:57:45;15.70;99.90
8220;DHT22;4151;51.110;7.020;2023-09-19T01:00:12;15.70;99.90
8220;DHT22;4151;51.110;7.020;2023-09-19T01:02:42;15.70;99.90
8220;DHT22;4151;51.110;7.020;2023-09-19T01:05:11;15.70;99.90
8220;DHT22;4151;51.110;7.020;2023-09-19T01:07:38;15.70;99.90
8220;DHT22;4151;51.110;7.020;2023-09-19T01:10:12;15.70;99.90
8220;DHT22;4151;51.110;7.020;2023-09-19T01:26:28;15.80;99.90
8220;DHT22;4151;51.110;7.020;2023-09-19T01:32:03;15.80;99.90
8220;DHT22;4151;51.110;7.020;2023-09-19T01:34:48;15.80;99.90
8220;DHT22;4151;51.110;7.020;2023-09-19T01:37:16;15.90;99.90
8220;DHT22;4151;51.110;7.020;2023-09-19T01:39:47;15.90;99.90
8220;DHT22;4151;51.110;7.020;2023-09-19T01:45:33;15.80;99.90
8220;DHT22;4151;51.110;7.020;2023-09-19T01:48:05;15.70;99.90
8220;DHT22;4151;51.110;7.020;2023-09-19T01:53:25;15.70;99.90
8220;DHT22;4151;51.110;7.020;2023-09-19T01:55:53;15.80;99.90
8220;DHT22;4151;51.110;7.020;2023-09-19T01:58:35;15.70;99.90
8220;DHT22;4151;51.110;7.020;2023-09-19T02:01:04;15.80;99.90
8220;DHT22;4151;51.110;7.020;2023-09-19T02:03:31;15.80;99.90
8220;DHT22;4151;51.110;7.020;2023-09-19T02:05:59;15.80;99.90
8220;DHT22;4151;51.110;7.020;2023-09-19T02:08:24;15.80;99.90
8220;DHT22;4151;51.110;7.020;2023-09-19T02:10:52;15.80;99.90
8220;DHT22;4151;51.110;7.020;2023-09-19T02:13:22;15.80;99.90
8220;DHT22;4151;51.110;7.020;2023-09-19T02:15:51;15.70;99.90
8220;DHT22;4151;51.110;7.020;2023-09-19T02:18:16;15.70;99.90
8220;DHT22;4151;51.110;7.020;2023-09-19T02:20:42;15.70;99.90
8220;DHT22;4151;51.110;7.020;2023-09-19T02:23:09;15.60;99.90
8220;DHT22;4151;51.110;7.020;2023-09-19T02:25:35;15.70;99.90
8220;DHT22;4151;51.110;7.020;2023-09-19T02:28:01;15.70;99.90
8220;DHT22;4151;51.110;7.020;2023-09-19T02:30:28;15.60;99.90
8220;DHT22;4151;51.110;7.020;2023-09-19T02:32:54;15.60;99.90
8220;DHT22;4151;51.110;7.020;2023-09-19T02:35:19;15.60;99.90
8220;DHT22;4151;51.110;7.020;2023-09-19T02:37:46;15.60;99.90
8220;DHT22;4151;51.110;7.020;2023-09-19T02:40:11;15.60;99.90
8220;DHT22;4151;51.110;7.020;2023-09-19T02:42:55;15.50;99.90
8220;DHT22;4151;51.110;7.020;2023-09-19T02:45:21;15.50;99.90
8220;DHT22;4151;51.110;7.020;2023-09-19T02:47:47;15.50;99.90
8220;DHT22;4151;51.110;7.020;2023-09-19T02:50:13;15.50;99.90
8220;DHT22;4151;51.110;7.020;2023-09-19T02:52:45;15.40;99.90
8220;DHT22;4151;51.110;7.020;2023-09-19T02:55:13;15.40;99.90
8220;DHT22;4151;51.110;7.020;2023-09-19T02:57:40;15.40;99.90
8220;DHT22;4151;51.110;7.020;2023-09-19T03:00:09;15.40;99.90
8220;DHT22;4151;51.110;7.020;2023-09-19T03:02:37;15.40;99.90
8220;DHT22;4151;51.110;7.020;2023-09-19T03:05:05;15.40;99.90
8220;DHT22;4151;51.110;7.020;2023-09-19T03:07:31;15.40;99.90
8220;DHT22;4151;51.110;7.020;2023-09-19T03:09:56;15.40;99.90
8220;DHT22;4151;51.110;7.020;2023-09-19T03:12:22;15.40;99.90
8220;DHT22;4151;51.110;7.020;2023-09-19T03:14:48;15.30;99.90
8220;DHT22;4151;51.110;7.020;2023-09-19T03:17:13;15.30;99.90
8220;DHT22;4151;51.110;7.020;2023-09-19T03:19:40;15.20;99.90
8220;DHT22;4151;51.110;7.020;2023-09-19T03:22:07;15.20;99.90
8220;DHT22;4151;51.110;7.020;2023-09-19T03:24:33;15.10;99.90
8220;DHT22;4151;51.110;7.020;2023-09-19T03:27:00;15.10;99.90
8220;DHT22;4151;51.110;7.020;2023-09-19T03:29:26;15.10;99.90
8220;DHT22;4151;51.110;7.020;2023-09-19T03:31:52;15.10;99.90
8220;DHT22;4151;51.110;7.020;2023-09-19T03:34:20;15.00;99.90
8220;DHT22;4151;51.110;7.020;2023-09-19T03:36:46;15.00;99.90
8220;DHT22;4151;51.110;7.020;2023-09-19T03:39:11;15.00;99.90
8220;DHT22;4151;51.110;7.020;2023-09-19T03:41:37;14.90;99.90
8220;DHT22;4151;51.110;7.020;2023-09-19T03:44:03;14.90;99.90
8220;DHT22;4151;51.110;7.020;2023-09-19T03:46:28;14.90;99.90
8220;DHT22;4151;51.110;7.020;2023-09-19T03:48:55;14.80;99.90
8220;DHT22;4151;51.110;7.020;2023-09-19T03:51:21;14.80;99.90
8220;DHT22;4151;51.110;7.020;2023-09-19T03:53:47;14.80;99.90
8220;DHT22;4151;51.110;7.020;2023-09-19T03:56:14;14.80;99.90
8220;DHT22;4151;51.110;7.020;2023-09-19T03:58:40;14.80;99.90
8220;DHT22;4151;51.110;7.020;2023-09-19T04:01:06;14.80;99.90
8220;DHT22;4151;51.110;7.020;2023-09-19T04:03:35;14.80;99.90
8220;DHT22;4151;51.110;7.020;2023-09-19T04:06:15;14.80;99.90
8220;DHT22;4151;51.110;7.020;2023-09-19T04:08:41;14.70;99.90
8220;DHT22;4151;51.110;7.020;2023-09-19T04:11:07;14.70;99.90
8220;DHT22;4151;51.110;7.020;2023-09-19T04:13:32;14.70;99.90
8220;DHT22;4151;51.110;7.020;2023-09-19T04:15:58;14.70;99.90
8220;DHT22;4151;51.110;7.020;2023-09-19T04:18:23;14.60;99.90
8220;DHT22;4151;51.110;7.020;2023-09-19T04:20:49;14.60;99.90
8220;DHT22;4151;51.110;7.020;2023-09-19T04:23:15;14.60;99.90
8220;DHT22;4151;51.110;7.020;2023-09-19T04:25:42;14.50;99.90
8220;DHT22;4151;51.110;7.020;2023-09-19T04:28:08;14.50;99.90
8220;DHT22;4151;51.110;7.020;2023-09-19T04:30:36;14.50;99.90
8220;DHT22;4151;51.110;7.020;2023-09-19T04:33:02;14.50;99.90
8220;DHT22;4151;51.110;7.020;2023-09-19T04:35:28;14.50;99.90
8220;DHT22;4151;51.110;7.020;2023-09-19T04:37:56;14.50;99.90
8220;DHT22;4151;51.110;7.020;2023-09-19T04:40:22;14.40;99.90
8220;DHT22;4151;51.110;7.020;2023-09-19T04:42:56;14.40;99.90
8220;DHT22;4151;51.110;7.020;2023-09-19T04:45:26;14.40;99.90
8220;DHT22;4151;51.110;7.020;2023-09-19T04:47:52;14.40;99.90
8220;DHT22;4151;51.110;7.020;2023-09-19T04:50:18;14.40;99.90
8220;DHT22;4151;51.110;7.020;2023-09-19T04:52:45;14.40;99.90
8220;DHT22;4151;51.110;7.020;2023-09-19T04:55:14;14.40;99.90
8220;DHT22;4151;51.110;7.020;2023-09-19T04:57:50;14.40;99.90
8220;DHT22;4151;51.110;7.020;2023-09-19T05:00:17;14.30;99.90
8220;DHT22;4151;51.110;7.020;2023-09-19T05:02:44;14.30;99.90
8220;DHT22;4151;51.110;7.020;2023-09-19T05:05:10;14.20;99.90
8220;DHT22;4151;51.110;7.020;2023-09-19T05:07:41;14.20;99.90
8220;DHT22;4151;51.110;7.020;2023-09-19T05:10:08;14.20;99.90
8220;DHT22;4151;51.110;7.020;2023-09-19T05:12:34;14.20;99.90
8220;DHT22;4151;51.110;7.020;2023-09-19T05:15:04;14.20;99.90
8220;DHT22;4151;51.110;7.020;2023-09-19T05:17:30;14.20;99.90
8220;DHT22;4151;51.110;7.020;2023-09-19T05:19:57;14.10;99.90
8220;DHT22;4151;51.110;7.020;2023-09-19T05:22:23;14.10;99.90
8220;DHT22;4151;51.110;7.020;2023-09-19T05:24:50;14.10;99.90
8220;DHT22;4151;51.110;7.020;2023-09-19T05:27:16;14.20;99.90
8220;DHT22;4151;51.110;7.020;2023-09-19T05:29:45;14.20;99.90
8220;DHT22;4151;51.110;7.020;2023-09-19T05:32:11;14.20;99.90
8220;DHT22;4151;51.110;7.020;2023-09-19T05:34:37;14.20;99.90
8220;DHT22;4151;51.110;7.020;2023-09-19T05:37:04;14.20;99.90
8220;DHT22;4151;51.110;7.020;2023-09-19T05:39:33;14.30;99.90
8220;DHT22;4151;51.110;7.020;2023-09-19T05:41:59;14.30;99.90
8220;DHT22;4151;51.110;7.020;2023-09-19T05:44:25;14.40;99.90
8220;DHT22;4151;51.110;7.020;2023-09-19T05:46:51;14.40;99.90
8220;DHT22;4151;51.110;7.020;2023-09-19T05:49:17;14.50;99.90
8220;DHT22;4151;51.110;7.020;2023-09-19T05:51:43;14.60;99.90
8220;DHT22;4151;51.110;7.020;2023-09-19T05:54:08;14.60;99.90
8220;DHT22;4151;51.110;7.020;2023-09-19T05:56:34;14.70;99.90
8220;DHT22;4151;51.110;7.020;2023-09-19T05:59:00;14.70;99.90
8220;DHT22;4151;51.110;7.020;2023-09-19T06:01:25;14.70;99.90
8220;DHT22;4151;51.110;7.020;2023-09-19T06:03:52;14.80;99.90
8220;DHT22;4151;51.110;7.020;2023-09-19T06:06:18;14.80;99.90
8220;DHT22;4151;51.110;7.020;2023-09-19T06:08:44;14.80;99.90
8220;DHT22;4151;51.110;7.020;2023-09-19T06:11:10;14.80;99.90
8220;DHT22;4151;51.110;7.020;2023-09-19T06:13:36;14.80;99.90
8220;DHT22;4151;51.110;7.020;2023-09-19T06:16:03;14.90;99.90
8220;DHT22;4151;51.110;7.020;2023-09-19T06:18:31;14.90;99.90
8220;DHT22;4151;51.110;7.020;2023-09-19T06:20:59;14.90;99.90
8220;DHT22;4151;51.110;7.020;2023-09-19T06:23:25;15.00;99.90
8220;DHT22;4151;51.110;7.020;2023-09-19T06:25:52;15.00;99.90
8220;DHT22;4151;51.110;7.020;2023-09-19T06:28:18;15.00;99.90
8220;DHT22;4151;51.110;7.020;2023-09-19T06:30:49;15.00;99.90
8220;DHT22;4151;51.110;7.020;2023-09-19T06:33:15;15.00;99.90
8220;DHT22;4151;51.110;7.020;2023-09-19T06:35:41;15.10;99.90
8220;DHT22;4151;51.110;7.020;2023-09-19T06:38:07;15.10;99.90
8220;DHT22;4151;51.110;7.020;2023-09-19T06:40:34;15.10;99.90
8220;DHT22;4151;51.110;7.020;2023-09-19T06:43:00;15.20;99.90
8220;DHT22;4151;51.110;7.020;2023-09-19T06:45:27;15.20;99.90
8220;DHT22;4151;51.110;7.020;2023-09-19T06:47:53;15.20;99.90
8220;DHT22;4151;51.110;7.020;2023-09-19T06:50:21;15.30;99.90
8220;DHT22;4151;51.110;7.020;2023-09-19T06:52:52;15.30;99.90
8220;DHT22;4151;51.110;7.020;2023-09-19T06:55:19;15.30;99.90
8220;DHT22;4151;51.110;7.020;2023-09-19T06:57:46;15.30;99.90
8220;DHT22;4151;51.110;7.020;2023-09-19T07:00:12;15.30;99.90
8220;DHT22;4151;51.110;7.020;2023-09-19T07:05:22;15.30;99.90
8220;DHT22;4151;51.110;7.020;2023-09-19T07:07:48;15.40;99.90
8220;DHT22;4151;51.110;7.020;2023-09-19T07:10:14;15.30;99.90
8220;DHT22;4151;51.110;7.020;2023-09-19T07:12:39;15.40;99.90
8220;DHT22;4151;51.110;7.020;2023-09-19T07:15:06;15.50;99.90
8220;DHT22;4151;51.110;7.020;2023-09-19T07:17:32;15.50;99.90
8220;DHT22;4151;51.110;7.020;2023-09-19T07:19:58;15.50;99.90
8220;DHT22;4151;51.110;7.020;2023-09-19T07:22:25;15.60;99.90
8220;DHT22;4151;51.110;7.020;2023-09-19T07:24:51;15.60;99.90
8220;DHT22;4151;51.110;7.020;2023-09-19T07:27:16;15.60;99.90
8220;DHT22;4151;51.110;7.020;2023-09-19T07:29:42;15.60;99.90
8220;DHT22;4151;51.110;7.020;2023-09-19T07:32:08;15.70;99.90
8220;DHT22;4151;51.110;7.020;2023-09-19T07:34:35;15.70;99.90
8220;DHT22;4151;51.110;7.020;2023-09-19T07:37:01;15.80;99.90
8220;DHT22;4151;51.110;7.020;2023-09-19T07:39:28;15.80;99.90
8220;DHT22;4151;51.110;7.020;2023-09-19T07:41:53;15.90;99.90
8220;DHT22;4151;51.110;7.020;2023-09-19T07:44:19;16.00;99.90
8220;DHT22;4151;51.110;7.020;2023-09-19T07:46:45;16.10;99.90
8220;DHT22;4151;51.110;7.020;2023-09-19T07:49:10;16.20;99.90
8220;DHT22;4151;51.110;7.020;2023-09-19T07:51:36;16.20;99.90
8220;DHT22;4151;51.110;7.020;2023-09-19T07:54:02;16.30;99.90
8220;DHT22;4151;51.110;7.020;2023-09-19T07:56:28;16.30;99.90
8220;DHT22;4151;51.110;7.020;2023-09-19T07:58:53;16.20;99.90
8220;DHT22;4151;51.110;7.020;2023-09-19T08:01:19;16.20;99.90
8220;DHT22;4151;51.110;7.020;2023-09-19T08:03:44;16.20;99.90
8220;DHT22;4151;51.110;7.020;2023-09-19T08:06:10;16.40;99.90
8220;DHT22;4151;51.110;7.020;2023-09-19T08:08:37;16.50;99.90
8220;DHT22;4151;51.110;7.020;2023-09-19T08:11:04;16.40;99.90
8220;DHT22;4151;51.110;7.020;2023-09-19T08:13:38;16.50;99.90
8220;DHT22;4151;51.110;7.020;2023-09-19T08:16:12;16.60;99.90
8220;DHT22;4151;51.110;7.020;2023-09-19T08:18:38;16.60;99.90
8220;DHT22;4151;51.110;7.020;2023-09-19T08:21:07;16.80;99.90
8220;DHT22;4151;51.110;7.020;2023-09-19T08:23:37;16.80;99.90
8220;DHT22;4151;51.110;7.020;2023-09-19T08:26:03;17.00;99.90
8220;DHT22;4151;51.110;7.020;2023-09-19T08:28:35;17.10;99.90
8220;DHT22;4151;51.110;7.020;2023-09-19T08:31:03;17.00;99.90
8220;DHT22;4151;51.110;7.020;2023-09-19T08:33:33;17.10;99.90
8220;DHT22;4151;51.110;7.020;2023-09-19T08:35:59;17.10;99.90
8220;DHT22;4151;51.110;7.020;2023-09-19T08:38:25;17.20;99.90
8220;DHT22;4151;51.110;7.020;2023-09-19T08:40:57;17.20;99.90
8220;DHT22;4151;51.110;7.020;2023-09-19T08:43:24;17.20;99.90
8220;DHT22;4151;51.110;7.020;2023-09-19T08:45:49;17.40;99.90
8220;DHT22;4151;51.110;7.020;2023-09-19T08:48:27;17.60;99.90
8220;DHT22;4151;51.110;7.020;2023-09-19T08:51:07;17.90;99.90
8220;DHT22;4151;51.110;7.020;2023-09-19T08:56:12;17.90;99.90
8220;DHT22;4151;51.110;7.020;2023-09-19T08:59:05;18.00;99.90
8220;DHT22;4151;51.110;7.020;2023-09-19T09:01:33;18.00;99.90
8220;DHT22;4151;51.110;7.020;2023-09-19T09:03:59;18.10;99.90
8220;DHT22;4151;51.110;7.020;2023-09-19T09:06:26;18.10;99.90
8220;DHT22;4151;51.110;7.020;2023-09-19T09:08:53;18.20;99.90
8220;DHT22;4151;51.110;7.020;2023-09-19T09:11:20;18.00;99.90
8220;DHT22;4151;51.110;7.020;2023-09-19T09:13:47;18.20;99.90
8220;DHT22;4151;51.110;7.020;2023-09-19T09:16:13;18.40;99.90
8220;DHT22;4151;51.110;7.020;2023-09-19T09:18:39;18.40;99.90
8220;DHT22;4151;51.110;7.020;2023-09-19T09:21:05;18.40;99.90
8220;DHT22;4151;51.110;7.020;2023-09-19T09:23:31;18.50;99.90
8220;DHT22;4151;51.110;7.020;2023-09-19T09:26:00;18.40;99.90
8220;DHT22;4151;51.110;7.020;2023-09-19T09:28:30;18.50;99.90
8220;DHT22;4151;51.110;7.020;2023-09-19T09:30:57;18.60;99.90
8220;DHT22;4151;51.110;7.020;2023-09-19T09:33:28;18.60;99.90
8220;DHT22;4151;51.110;7.020;2023-09-19T09:35:55;18.70;99.90
8220;DHT22;4151;51.110;7.020;2023-09-19T09:38:48;18.90;99.90
8220;DHT22;4151;51.110;7.020;2023-09-19T09:41:16;19.00;99.90
8220;DHT22;4151;51.110;7.020;2023-09-19T09:43:53;19.30;99.90
8220;DHT22;4151;51.110;7.020;2023-09-19T09:46:20;19.70;99.90
8220;DHT22;4151;51.110;7.020;2023-09-19T09:48:46;19.70;99.90
8220;DHT22;4151;51.110;7.020;2023-09-19T09:51:32;19.70;99.90
8220;DHT22;4151;51.110;7.020;2023-09-19T09:54:12;19.50;99.90
8220;DHT22;4151;51.110;7.020;2023-09-19T09:56:58;19.50;99.90
8220;DHT22;4151;51.110;7.020;2023-09-19T09:59:47;19.50;99.90
8220;DHT22;4151;51.110;7.020;2023-09-19T10:02:25;19.70;99.90
8220;DHT22;4151;51.110;7.020;2023-09-19T10:04:55;19.90;99.90
8220;DHT22;4151;51.110;7.020;2023-09-19T10:07:39;20.10;99.90
8220;DHT22;4151;51.110;7.020;2023-09-19T10:10:08;20.40;99.90
8220;DHT22;4151;51.110;7.020;2023-09-19T10:12:48;20.40;99.90
8220;DHT22;4151;51.110;7.020;2023-09-19T10:15:18;20.30;99.90
8220;DHT22;4151;51.110;7.020;2023-09-19T10:17:47;20.70;99.90
8220;DHT22;4151;51.110;7.020;2023-09-19T10:20:16;20.70;99.90
8220;DHT22;4151;51.110;7.020;2023-09-19T10:23:10;20.60;99.90
8220;DHT22;4151;51.110;7.020;2023-09-19T10:25:41;20.50;99.90
8220;DHT22;4151;51.110;7.020;2023-09-19T10:28:09;20.60;99.90
8220;DHT22;4151;51.110;7.020;2023-09-19T10:30:41;20.80;99.90
8220;DHT22;4151;51.110;7.020;2023-09-19T10:33:11;20.80;99.90
8220;DHT22;4151;51.110;7.020;2023-09-19T10:35:40;20.90;99.90
8220;DHT22;4151;51.110;7.020;2023-09-19T10:38:07;21.00;99.90
8220;DHT22;4151;51.110;7.020;2023-09-19T10:40:35;20.90;99.90
8220;DHT22;4151;51.110;7.020;2023-09-19T10:43:05;20.90;99.90
8220;DHT22;4151;51.110;7.020;2023-09-19T10:45:35;20.40;99.90
8220;DHT22;4151;51.110;7.020;2023-09-19T10:48:04;20.00;99.90
8220;DHT22;4151;51.110;7.020;2023-09-19T10:50:36;19.70;99.90
8220;DHT22;4151;51.110;7.020;2023-09-19T10:53:07;19.90;99.90
8220;DHT22;4151;51.110;7.020;2023-09-19T10:55:36;20.00;99.90
8220;DHT22;4151;51.110;7.020;2023-09-19T10:58:02;20.40;99.90
8220;DHT22;4151;51.110;7.020;2023-09-19T11:00:53;20.60;99.90
8220;DHT22;4151;51.110;7.020;2023-09-19T11:03:20;20.80;99.90
8220;DHT22;4151;51.110;7.020;2023-09-19T11:06:06;20.80;99.90
8220;DHT22;4151;51.110;7.020;2023-09-19T11:11:45;21.00;99.90
8220;DHT22;4151;51.110;7.020;2023-09-19T11:30:35;21.10;99.90
8220;DHT22;4151;51.110;7.020;2023-09-19T11:33:22;21.20;99.90
8220;DHT22;4151;51.110;7.020;2023-09-19T11:36:15;21.00;99.90
8220;DHT22;4151;51.110;7.020;2023-09-19T11:46:32;21.50;99.90
8220;DHT22;4151;51.110;7.020;2023-09-19T11:49:08;21.20;99.90
8220;DHT22;4151;51.110;7.020;2023-09-19T11:51:43;21.30;99.90
8220;DHT22;4151;51.110;7.020;2023-09-19T11:54:13;21.70;99.90
8220;DHT22;4151;51.110;7.020;2023-09-19T11:56:43;21.40;99.90
8220;DHT22;4151;51.110;7.020;2023-09-19T11:59:10;21.60;99.90
8220;DHT22;4151;51.110;7.020;2023-09-19T12:01:38;21.90;99.90
8220;DHT22;4151;51.110;7.020;2023-09-19T12:04:11;22.00;99.90
8220;DHT22;4151;51.110;7.020;2023-09-19T12:06:37;22.20;99.90
8220;DHT22;4151;51.110;7.020;2023-09-19T12:09:04;22.10;99.90
8220;DHT22;4151;51.110;7.020;2023-09-19T12:11:32;22.40;99.90
8220;DHT22;4151;51.110;7.020;2023-09-19T12:13:59;22.50;99.90
8220;DHT22;4151;51.110;7.020;2023-09-19T12:16:26;22.60;99.90
8220;DHT22;4151;51.110;7.020;2023-09-19T12:18:56;22.40;99.90
8220;DHT22;4151;51.110;7.020;2023-09-19T12:21:23;22.60;99.90
8220;DHT22;4151;51.110;7.020;2023-09-19T12:26:30;22.60;99.90
8220;DHT22;4151;51.110;7.020;2023-09-19T12:29:02;22.90;99.90
8220;DHT22;4151;51.110;7.020;2023-09-19T12:31:30;23.20;99.90
8220;DHT22;4151;51.110;7.020;2023-09-19T12:34:01;23.30;99.90
8220;DHT22;4151;51.110;7.020;2023-09-19T12:36:27;23.60;99.90
8220;DHT22;4151;51.110;7.020;2023-09-19T12:38:56;23.80;99.90
8220;DHT22;4151;51.110;7.020;2023-09-19T12:41:25;23.50;99.90
8220;DHT22;4151;51.110;7.020;2023-09-19T12:43:52;23.20;99.90
8220;DHT22;4151;51.110;7.020;2023-09-19T12:46:22;22.90;99.90
8220;DHT22;4151;51.110;7.020;2023-09-19T12:49:16;22.60;99.90
8220;DHT22;4151;51.110;7.020;2023-09-19T12:51:48;22.60;99.90
8220;DHT22;4151;51.110;7.020;2023-09-19T12:54:14;22.60;99.90
8220;DHT22;4151;51.110;7.020;2023-09-19T12:56:43;23.00;99.90
8220;DHT22;4151;51.110;7.020;2023-09-19T12:59:14;23.20;99.90
8220;DHT22;4151;51.110;7.020;2023-09-19T13:01:41;23.20;99.90
8220;DHT22;4151;51.110;7.020;2023-09-19T13:04:22;23.10;99.90
8220;DHT22;4151;51.110;7.020;2023-09-19T13:06:55;22.80;99.90
8220;DHT22;4151;51.110;7.020;2023-09-19T13:09:27;23.10;99.90
8220;DHT22;4151;51.110;7.020;2023-09-19T13:11:59;23.60;99.90
8220;DHT22;4151;51.110;7.020;2023-09-19T13:14:28;23.90;99.90
8220;DHT22;4151;51.110;7.020;2023-09-19T13:19:46;23.50;99.90
8220;DHT22;4151;51.110;7.020;2023-09-19T13:22:37;23.60;99.90
8220;DHT22;4151;51.110;7.020;2023-09-19T13:25:18;23.70;99.90
8220;DHT22;4151;51.110;7.020;2023-09-19T13:27:45;23.60;99.90
8220;DHT22;4151;51.110;7.020;2023-09-19T13:30:12;23.30;99.90
8220;DHT22;4151;51.110;7.020;2023-09-19T13:32:37;23.60;99.90
8220;DHT22;4151;51.110;7.020;2023-09-19T13:35:06;23.30;99.90
8220;DHT22;4151;51.110;7.020;2023-09-19T13:37:34;23.10;99.90
8220;DHT22;4151;51.110;7.020;2023-09-19T13:40:01;22.90;99.90
8220;DHT22;4151;51.110;7.020;2023-09-19T13:42:27;22.90;99.90
8220;DHT22;4151;51.110;7.020;2023-09-19T13:44:55;22.60;99.90
8220;DHT22;4151;51.110;7.020;2023-09-19T13:47:21;22.30;99.90
8220;DHT22;4151;51.110;7.020;2023-09-19T13:49:50;21.80;99.90
8220;DHT22;4151;51.110;7.020;2023-09-19T13:52:20;22.00;99.90
8220;DHT22;4151;51.110;7.020;2023-09-19T13:54:45;22.10;99.90
8220;DHT22;4151;51.110;7.020;2023-09-19T13:57:11;22.00;99.90
8220;DHT22;4151;51.110;7.020;2023-09-19T13:59:36;21.80;99.90
8220;DHT22;4151;51.110;7.020;2023-09-19T14:02:02;22.00;99.90
8220;DHT22;4151;51.110;7.020;2023-09-19T14:04:31;22.00;99.90
8220;DHT22;4151;51.110;7.020;2023-09-19T14:06:57;21.70;99.90
8220;DHT22;4151;51.110;7.020;2023-09-19T14:09:23;21.40;99.90
8220;DHT22;4151;51.110;7.020;2023-09-19T14:11:50;21.20;99.90
8220;DHT22;4151;51.110;7.020;2023-09-19T14:14:18;21.20;99.90
8220;DHT22;4151;51.110;7.020;2023-09-19T14:16:44;21.00;99.90
8220;DHT22;4151;51.110;7.020;2023-09-19T14:19:09;20.90;99.90
8220;DHT22;4151;51.110;7.020;2023-09-19T14:21:35;20.70;99.90
8220;DHT22;4151;51.110;7.020;2023-09-19T14:24:02;20.70;99.90
8220;DHT22;4151;51.110;7.020;2023-09-19T14:26:28;20.70;99.90
8220;DHT22;4151;51.110;7.020;2023-09-19T14:28:54;20.80;99.90
8220;DHT22;4151;51.110;7.020;2023-09-19T14:31:20;20.80;99.90
8220;DHT22;4151;51.110;7.020;2023-09-19T14:33:45;20.70;99.90
8220;DHT22;4151;51.110;7.020;2023-09-19T14:36:18;20.70;99.90
8220;DHT22;4151;51.110;7.020;2023-09-19T14:38:44;20.90;99.90
8220;DHT22;4151;51.110;7.020;2023-09-19T14:41:10;20.90;99.90
8220;DHT22;4151;51.110;7.020;2023-09-19T14:43:35;20.90;99.90
8220;DHT22;4151;51.110;7.020;2023-09-19T14:46:05;21.20;99.90
8220;DHT22;4151;51.110;7.020;2023-09-19T14:48:33;21.20;99.90
8220;DHT22;4151;51.110;7.020;2023-09-19T14:51:03;21.20;99.90
8220;DHT22;4151;51.110;7.020;2023-09-19T14:53:29;21.70;99.90
8220;DHT22;4151;51.110;7.020;2023-09-19T14:55:55;22.10;99.90
8220;DHT22;4151;51.110;7.020;2023-09-19T14:58:21;22.50;99.90
8220;DHT22;4151;51.110;7.020;2023-09-19T15:00:47;22.40;99.90
8220;DHT22;4151;51.110;7.020;2023-09-19T15:03:13;22.30;99.90
8220;DHT22;4151;51.110;7.020;2023-09-19T15:05:43;22.10;99.90
8220;DHT22;4151;51.110;7.020;2023-09-19T15:08:08;21.60;99.90
8220;DHT22;4151;51.110;7.020;2023-09-19T15:10:34;21.20;99.90
8220;DHT22;4151;51.110;7.020;2023-09-19T15:13:00;20.80;99.90
8220;DHT22;4151;51.110;7.020;2023-09-19T15:15:25;20.70;99.90
8220;DHT22;4151;51.110;7.020;2023-09-19T15:17:51;20.60;99.90
8220;DHT22;4151;51.110;7.020;2023-09-19T15:20:16;20.40;99.90
8220;DHT22;4151;51.110;7.020;2023-09-19T15:22:43;20.10;99.90
8220;DHT22;4151;51.110;7.020;2023-09-19T15:25:09;20.10;99.90
8220;DHT22;4151;51.110;7.020;2023-09-19T15:27:35;20.10;99.90
8220;DHT22;4151;51.110;7.020;2023-09-19T15:30:02;20.00;99.90
8220;DHT22;4151;51.110;7.020;2023-09-19T15:32:30;20.00;99.90
8220;DHT22;4151;51.110;7.020;2023-09-19T15:34:56;19.90;99.90
8220;DHT22;4151;51.110;7.020;2023-09-19T15:37:22;20.00;99.90
8220;DHT22;4151;51.110;7.020;2023-09-19T15:39:47;20.10;99.90
8220;DHT22;4151;51.110;7.020;2023-09-19T15:42:13;20.00;99.90
8220;DHT22;4151;51.110;7.020;2023-09-19T15:44:42;20.00;99.90
8220;DHT22;4151;51.110;7.020;2023-09-19T15:47:09;20.00;99.90
8220;DHT22;4151;51.110;7.020;2023-09-19T15:49:35;19.90;99.90
8220;DHT22;4151;51.110;7.020;2023-09-19T15:52:00;19.90;99.90
8220;DHT22;4151;51.110;7.020;2023-09-19T15:54:26;19.90;99.90
8220;DHT22;4151;51.110;7.020;2023-09-19T15:56:53;19.90;99.90
8220;DHT22;4151;51.110;7.020;2023-09-19T15:59:18;19.90;99.90
8220;DHT22;4151;51.110;7.020;2023-09-19T16:01:44;19.90;99.90
8220;DHT22;4151;51.110;7.020;2023-09-19T16:04:11;19.90;99.90
8220;DHT22;4151;51.110;7.020;2023-09-19T16:06:37;19.90;99.90
8220;DHT22;4151;51.110;7.020;2023-09-19T16:09:06;20.00;99.90
8220;DHT22;4151;51.110;7.020;2023-09-19T16:11:33;20.00;99.90
8220;DHT22;4151;51.110;7.020;2023-09-19T16:14:00;20.00;99.90
8220;DHT22;4151;51.110;7.020;2023-09-19T16:16:26;20.00;99.90
8220;DHT22;4151;51.110;7.020;2023-09-19T16:18:57;20.00;99.90
8220;DHT22;4151;51.110;7.020;2023-09-19T16:21:25;20.00;99.90
8220;DHT22;4151;51.110;7.020;2023-09-19T16:23:56;19.90;99.90
8220;DHT22;4151;51.110;7.020;2023-09-19T16:26:22;19.90;99.90
8220;DHT22;4151;51.110;7.020;2023-09-19T16:28:53;19.90;99.90
8220;DHT22;4151;51.110;7.020;2023-09-19T16:31:19;19.90;99.90
8220;DHT22;4151;51.110;7.020;2023-09-19T16:33:47;19.90;99.90
8220;DHT22;4151;51.110;7.020;2023-09-19T16:36:18;19.90;99.90
8220;DHT22;4151;51.110;7.020;2023-09-19T16:38:46;19.80;99.90
8220;DHT22;4151;51.110;7.020;2023-09-19T16:41:13;19.90;99.90
8220;DHT22;4151;51.110;7.020;2023-09-19T16:43:39;20.10;99.90
8220;DHT22;4151;51.110;7.020;2023-09-19T16:46:06;20.20;99.90
8220;DHT22;4151;51.110;7.020;2023-09-19T16:48:34;20.20;99.90
8220;DHT22;4151;51.110;7.020;2023-09-19T16:51:02;20.30;99.90
8220;DHT22;4151;51.110;7.020;2023-09-19T16:53:29;20.30;99.90
8220;DHT22;4151;51.110;7.020;2023-09-19T16:56:10;20.10;99.90
8220;DHT22;4151;51.110;7.020;2023-09-19T16:58:37;20.00;99.90
8220;DHT22;4151;51.110;7.020;2023-09-19T17:01:06;19.90;99.90
8220;DHT22;4151;51.110;7.020;2023-09-19T17:03:34;19.90;99.90
8220;DHT22;4151;51.110;7.020;2023-09-19T17:06:01;19.80;99.90
8220;DHT22;4151;51.110;7.020;2023-09-19T17:08:29;19.70;99.90
8220;DHT22;4151;51.110;7.020;2023-09-19T17:11:02;19.70;99.90